createdAt,value
2017-06-15T00:01:49.045Z,0
2017-06-15T00:02:29.560Z,0
2017-06-15T00:03:10.087Z,0
2017-06-15T00:03:50.622Z,0
2017-06-15T00:04:31.132Z,0
2017-06-15T00:05:11.687Z,0
2017-06-15T00:05:52.209Z,0
2017-06-15T00:06:32.741Z,0
2017-06-15T00:07:13.264Z,0
2017-06-15T00:07:53.790Z,0
2017-06-15T00:08:34.330Z,0
2017-06-15T00:09:14.850Z,0
2017-06-15T00:09:55.350Z,0
2017-06-15T00:10:35.876Z,0
2017-06-15T00:11:16.400Z,0
2017-06-15T00:11:56.916Z,0
2017-06-15T00:12:37.455Z,0
2017-06-15T00:13:17.959Z,0
2017-06-15T00:13:58.488Z,0
2017-06-15T00:14:39.014Z,0
2017-06-15T00:15:19.535Z,0
2017-06-15T00:16:00.074Z,0
2017-06-15T00:16:40.557Z,0
2017-06-15T00:17:21.082Z,0
2017-06-15T00:19:50.514Z,0
2017-06-15T00:20:31.052Z,0
2017-06-15T00:21:11.593Z,0
2017-06-15T00:21:52.118Z,0
2017-06-15T00:22:32.669Z,0
2017-06-15T00:23:13.219Z,0
2017-06-15T00:23:53.766Z,0
2017-06-15T00:24:34.299Z,0
2017-06-15T00:25:14.829Z,0
2017-06-15T00:25:55.348Z,0
2017-06-15T00:26:35.912Z,0
2017-06-15T00:27:16.415Z,0
2017-06-15T00:27:56.945Z,0
2017-06-15T00:28:37.471Z,0
2017-06-15T00:29:17.990Z,0
2017-06-15T00:29:58.529Z,0
2017-06-15T00:30:39.046Z,0
2017-06-15T00:31:19.554Z,0
2017-06-15T00:32:00.094Z,0
2017-06-15T00:32:40.612Z,0
2017-06-15T00:33:21.118Z,0
2017-06-15T00:34:01.636Z,0
2017-06-15T00:34:42.182Z,0
2017-06-15T00:35:22.681Z,0
2017-06-15T00:36:03.201Z,0
2017-06-15T00:36:43.732Z,0
2017-06-15T00:37:24.256Z,0
2017-06-15T00:38:04.770Z,0
2017-06-15T00:38:45.289Z,0
2017-06-15T00:40:59.495Z,0
2017-06-15T00:41:40.045Z,0
2017-06-15T00:42:20.531Z,0
2017-06-15T00:43:01.045Z,0
2017-06-15T00:43:41.555Z,0
2017-06-15T00:44:22.112Z,0
2017-06-15T00:45:02.645Z,0
2017-06-15T00:45:43.185Z,0
2017-06-15T00:46:23.719Z,0
2017-06-15T00:47:04.240Z,0
2017-06-15T00:47:44.785Z,0
2017-06-15T00:48:25.264Z,0
2017-06-15T00:49:05.797Z,0
2017-06-15T00:49:46.308Z,0
2017-06-15T00:50:26.830Z,0
2017-06-15T00:51:07.358Z,0
2017-06-15T00:51:47.878Z,0
2017-06-15T00:52:28.382Z,0
2017-06-15T00:53:08.895Z,0
2017-06-15T00:53:49.400Z,0
2017-06-15T00:54:29.961Z,0
2017-06-15T00:55:10.429Z,0
2017-06-15T00:55:50.946Z,0
2017-06-15T00:56:31.481Z,0
2017-06-15T00:59:01.752Z,0
2017-06-15T00:59:42.275Z,0
2017-06-15T01:00:22.811Z,0
2017-06-15T01:01:03.300Z,0
2017-06-15T01:01:43.840Z,0
2017-06-15T01:02:24.365Z,0
2017-06-15T01:03:04.935Z,0
2017-06-15T01:03:45.412Z,0
2017-06-15T01:04:25.938Z,0
2017-06-15T01:05:06.464Z,0
2017-06-15T01:05:47.003Z,0
2017-06-15T01:06:27.520Z,0
2017-06-15T01:07:08.043Z,0
2017-06-15T01:07:48.567Z,0
2017-06-15T01:08:29.107Z,0
2017-06-15T01:09:09.635Z,0
2017-06-15T01:09:50.174Z,0
2017-06-15T01:10:30.693Z,0
2017-06-15T01:11:11.230Z,0
2017-06-15T01:11:51.772Z,0
2017-06-15T01:12:32.297Z,0
2017-06-15T01:13:12.832Z,0
2017-06-15T01:13:53.332Z,0
2017-06-15T01:14:33.852Z,0
2017-06-15T01:15:14.407Z,0
2017-06-15T01:15:54.943Z,0
2017-06-15T01:16:35.477Z,0
2017-06-15T01:17:15.984Z,0
2017-06-15T01:17:56.505Z,0
2017-06-15T01:18:37.080Z,0
2017-06-15T01:19:17.564Z,0
2017-06-15T01:19:58.089Z,0
2017-06-15T01:20:38.618Z,0
2017-06-15T01:21:19.143Z,0
2017-06-15T01:21:59.674Z,0
2017-06-15T01:22:40.187Z,0
2017-06-15T01:23:20.735Z,0
2017-06-15T01:25:34.956Z,0
2017-06-15T01:26:15.483Z,0
2017-06-15T01:26:56.004Z,0
2017-06-15T01:27:36.581Z,0
2017-06-15T01:28:17.051Z,0
2017-06-15T01:28:57.554Z,0
2017-06-15T01:29:38.094Z,0
2017-06-15T01:30:18.612Z,0
2017-06-15T01:30:59.106Z,0
2017-06-15T01:31:39.645Z,0
2017-06-15T01:32:20.168Z,0
2017-06-15T01:33:00.716Z,0
2017-06-15T01:33:41.241Z,0
2017-06-15T01:34:21.759Z,0
2017-06-15T01:35:02.290Z,0
2017-06-15T01:35:42.812Z,0
2017-06-15T01:36:23.355Z,0
2017-06-15T01:37:03.858Z,0
2017-06-15T01:37:44.383Z,0
2017-06-15T01:38:24.914Z,0
2017-06-15T01:39:05.443Z,0
2017-06-15T01:39:45.956Z,0
2017-06-15T01:40:26.531Z,0
2017-06-15T01:41:07.007Z,0
2017-06-15T01:41:47.521Z,0
2017-06-15T01:42:28.080Z,0
2017-06-15T01:43:08.545Z,0
2017-06-15T01:43:49.081Z,0
2017-06-15T01:44:29.597Z,0
2017-06-15T01:45:10.150Z,0
2017-06-15T01:45:50.663Z,0
2017-06-15T01:48:04.843Z,0
2017-06-15T01:48:45.362Z,0
2017-06-15T01:49:25.912Z,0
2017-06-15T01:50:06.398Z,0
2017-06-15T01:50:46.922Z,0
2017-06-15T01:51:27.461Z,0
2017-06-15T01:52:07.988Z,0
2017-06-15T01:52:48.497Z,0
2017-06-15T01:53:29.037Z,0
2017-06-15T01:54:09.564Z,0
2017-06-15T01:54:50.087Z,0
2017-06-15T01:55:30.614Z,0
2017-06-15T01:56:11.149Z,0
2017-06-15T01:56:51.689Z,0
2017-06-15T01:57:32.216Z,0
2017-06-15T01:58:12.766Z,0
2017-06-15T01:58:53.262Z,0
2017-06-15T01:59:33.786Z,0
2017-06-15T02:00:14.303Z,0
2017-06-15T02:00:54.833Z,0
2017-06-15T02:01:35.379Z,0
2017-06-15T02:02:15.878Z,0
2017-06-15T02:02:56.393Z,0
2017-06-15T02:03:36.921Z,0
2017-06-15T02:04:17.438Z,0
2017-06-15T02:04:57.937Z,0
2017-06-15T02:05:38.464Z,0
2017-06-15T02:06:18.999Z,0
2017-06-15T02:06:59.502Z,0
2017-06-15T02:07:40.021Z,0
2017-06-15T02:08:20.554Z,0
2017-06-15T02:09:01.070Z,0
2017-06-15T02:09:41.614Z,0
2017-06-15T02:10:22.122Z,0
2017-06-15T02:11:02.642Z,0
2017-06-15T02:11:43.177Z,0
2017-06-15T02:12:23.707Z,0
2017-06-15T02:13:04.224Z,0
2017-06-15T02:13:44.737Z,0
2017-06-15T02:14:25.252Z,0
2017-06-15T02:15:05.781Z,0
2017-06-15T02:15:46.293Z,0
2017-06-15T02:16:26.833Z,0
2017-06-15T02:17:07.363Z,0
2017-06-15T02:17:47.867Z,0
2017-06-15T02:18:28.402Z,0
2017-06-15T02:19:08.928Z,0
2017-06-15T02:19:49.475Z,0
2017-06-15T02:20:29.958Z,0
2017-06-15T02:21:10.519Z,0
2017-06-15T02:21:51.058Z,0
2017-06-15T02:22:31.608Z,0
2017-06-15T02:23:12.163Z,0
2017-06-15T02:23:52.668Z,0
2017-06-15T02:24:33.191Z,0
2017-06-15T02:25:13.709Z,0
2017-06-15T02:25:54.223Z,0
2017-06-15T02:26:34.751Z,0
2017-06-15T02:27:15.292Z,0
2017-06-15T02:27:55.805Z,0
2017-06-15T02:28:36.319Z,0
2017-06-15T02:29:16.850Z,0
2017-06-15T02:29:57.413Z,0
2017-06-15T02:30:37.898Z,0
2017-06-15T02:31:18.444Z,0
2017-06-15T02:31:58.969Z,0
2017-06-15T02:32:39.498Z,0
2017-06-15T02:33:20.012Z,0
2017-06-15T02:34:00.533Z,0
2017-06-15T02:34:41.079Z,0
2017-06-15T02:35:21.587Z,0
2017-06-15T02:36:02.149Z,0
2017-06-15T02:36:42.635Z,0
2017-06-15T02:37:23.149Z,0
2017-06-15T02:38:03.663Z,0
2017-06-15T02:38:44.193Z,0
2017-06-15T02:39:24.743Z,5
2017-06-15T02:40:05.292Z,5
2017-06-15T02:40:45.762Z,5
2017-06-15T02:41:26.321Z,5
2017-06-15T02:42:06.817Z,5
2017-06-15T02:42:47.349Z,5
2017-06-15T02:43:27.911Z,5
2017-06-15T02:44:08.441Z,5
2017-06-15T02:44:48.962Z,5
2017-06-15T02:45:29.481Z,5
2017-06-15T02:46:10.005Z,5
2017-06-15T02:46:50.553Z,5
2017-06-15T02:47:31.085Z,5
2017-06-15T02:48:11.600Z,5
2017-06-15T02:48:52.122Z,5
2017-06-15T02:49:32.649Z,5
2017-06-15T02:50:13.181Z,10
2017-06-15T02:50:53.718Z,10
2017-06-15T02:51:34.242Z,10
2017-06-15T02:52:14.766Z,10
2017-06-15T02:52:55.303Z,10
2017-06-15T02:53:35.839Z,10
2017-06-15T02:54:16.355Z,10
2017-06-15T02:54:56.869Z,10
2017-06-15T02:55:37.407Z,10
2017-06-15T02:56:17.934Z,10
2017-06-15T02:56:58.461Z,10
2017-06-15T02:57:38.995Z,10
2017-06-15T02:58:19.538Z,15
2017-06-15T02:59:00.066Z,15
2017-06-15T02:59:40.599Z,15
2017-06-15T03:00:21.112Z,15
2017-06-15T03:01:01.637Z,15
2017-06-15T03:01:42.160Z,15
2017-06-15T03:02:22.683Z,15
2017-06-15T03:03:03.202Z,15
2017-06-15T03:03:43.727Z,15
2017-06-15T03:04:24.248Z,20
2017-06-15T03:05:04.763Z,20
2017-06-15T03:05:45.280Z,20
2017-06-15T03:06:25.811Z,20
2017-06-15T03:07:06.346Z,20
2017-06-15T03:07:46.865Z,20
2017-06-15T03:08:27.401Z,20
2017-06-15T03:09:07.917Z,20
2017-06-15T03:09:48.464Z,25
2017-06-15T03:10:28.977Z,25
2017-06-15T03:11:09.474Z,25
2017-06-15T03:11:50.013Z,25
2017-06-15T03:12:30.572Z,25
2017-06-15T03:13:11.052Z,25
2017-06-15T03:13:51.577Z,25
2017-06-15T03:14:32.119Z,30
2017-06-15T03:15:12.654Z,30
2017-06-15T03:15:53.203Z,30
2017-06-15T03:16:33.682Z,30
2017-06-15T03:17:14.205Z,30
2017-06-15T03:17:54.722Z,30
2017-06-15T03:18:35.235Z,30
2017-06-15T03:19:15.771Z,35
2017-06-15T03:19:56.294Z,35
2017-06-15T03:20:36.824Z,35
2017-06-15T03:21:17.348Z,35
2017-06-15T03:21:57.856Z,35
2017-06-15T03:22:38.392Z,35
2017-06-15T03:23:18.904Z,35
2017-06-15T03:23:59.427Z,35
2017-06-15T03:24:39.947Z,40
2017-06-15T03:25:20.480Z,40
2017-06-15T03:26:01.007Z,40
2017-06-15T03:26:41.527Z,40
2017-06-15T03:27:22.054Z,40
2017-06-15T03:28:02.582Z,45
2017-06-15T03:28:43.143Z,45
2017-06-15T03:29:23.657Z,45
2017-06-15T03:30:04.153Z,45
2017-06-15T03:30:44.693Z,45
2017-06-15T03:31:25.223Z,50
2017-06-15T03:32:05.745Z,50
2017-06-15T03:32:46.285Z,50
2017-06-15T03:33:26.803Z,50
2017-06-15T03:34:07.347Z,55
2017-06-15T03:34:47.885Z,55
2017-06-15T03:35:28.438Z,55
2017-06-15T03:36:08.928Z,55
2017-06-15T03:36:49.447Z,55
2017-06-15T03:37:29.978Z,60
2017-06-15T03:38:10.511Z,60
2017-06-15T03:38:51.014Z,60
2017-06-15T03:39:31.540Z,60
2017-06-15T03:40:12.099Z,60
2017-06-15T03:40:52.592Z,65
2017-06-15T03:41:33.119Z,65
2017-06-15T03:43:48.342Z,70
2017-06-15T03:44:28.851Z,70
2017-06-15T03:45:09.384Z,70
2017-06-15T03:45:49.931Z,70
2017-06-15T03:46:30.472Z,75
2017-06-15T03:47:10.971Z,75
2017-06-15T03:47:51.530Z,75
2017-06-15T03:48:32.030Z,75
2017-06-15T03:49:12.574Z,80
2017-06-15T03:49:53.118Z,80
2017-06-15T03:50:33.618Z,80
2017-06-15T03:51:14.146Z,80
2017-06-15T03:51:54.664Z,80
2017-06-15T03:52:35.205Z,80
2017-06-15T03:53:15.723Z,80
2017-06-15T03:53:56.229Z,80
2017-06-15T03:54:36.762Z,80
2017-06-15T03:55:17.272Z,85
2017-06-15T03:55:57.778Z,85
2017-06-15T03:56:38.307Z,85
2017-06-15T03:57:18.827Z,85
2017-06-15T03:57:59.360Z,90
2017-06-15T03:58:39.878Z,90
2017-06-15T03:59:20.413Z,90
2017-06-15T04:00:00.928Z,90
2017-06-15T04:00:41.459Z,95
2017-06-15T04:01:21.980Z,95
2017-06-15T04:02:02.495Z,90
2017-06-15T04:02:43.026Z,95
2017-06-15T04:03:23.576Z,95
2017-06-15T04:04:04.075Z,95
2017-06-15T04:04:44.606Z,95
2017-06-15T04:05:25.120Z,95
2017-06-15T04:06:05.629Z,95
2017-06-15T04:06:46.173Z,95
2017-06-15T04:07:26.699Z,95
2017-06-15T04:08:07.216Z,95
2017-06-15T04:08:47.755Z,100
2017-06-15T04:09:28.249Z,105
2017-06-15T04:10:08.795Z,100
2017-06-15T04:10:49.347Z,105
2017-06-15T04:11:29.900Z,100
2017-06-15T04:12:10.422Z,100
2017-06-15T04:12:50.952Z,100
2017-06-15T04:13:31.498Z,105
2017-06-15T04:14:12.049Z,105
2017-06-15T04:14:52.594Z,105
2017-06-15T04:15:33.090Z,105
2017-06-15T04:16:13.572Z,105
2017-06-15T04:16:54.116Z,105
2017-06-15T04:17:34.612Z,105
2017-06-15T04:18:15.130Z,110
2017-06-15T04:18:55.666Z,110
2017-06-15T04:19:36.180Z,110
2017-06-15T04:20:16.689Z,110
2017-06-15T04:20:57.202Z,110
2017-06-15T04:21:37.771Z,110
2017-06-15T04:22:18.262Z,110
2017-06-15T04:22:58.789Z,110
2017-06-15T04:23:39.309Z,110
2017-06-15T04:24:19.840Z,105
2017-06-15T04:25:00.355Z,110
2017-06-15T04:25:40.897Z,110
2017-06-15T04:26:21.408Z,110
2017-06-15T04:27:01.950Z,110
2017-06-15T04:27:42.483Z,110
2017-06-15T04:28:23.006Z,110
2017-06-15T04:29:03.553Z,110
2017-06-15T04:29:44.061Z,110
2017-06-15T04:30:24.578Z,110
2017-06-15T04:31:05.120Z,110
2017-06-15T04:31:45.643Z,110
2017-06-15T04:32:26.174Z,110
2017-06-15T04:33:06.709Z,110
2017-06-15T04:33:47.217Z,110
2017-06-15T04:34:27.727Z,115
2017-06-15T04:35:08.258Z,115
2017-06-15T04:35:48.805Z,115
2017-06-15T04:36:29.332Z,115
2017-06-15T04:37:09.872Z,110
2017-06-15T04:37:50.371Z,110
2017-06-15T04:38:30.894Z,110
2017-06-15T04:39:11.423Z,105
2017-06-15T04:39:51.957Z,105
2017-06-15T04:40:32.479Z,105
2017-06-15T04:41:13.003Z,105
2017-06-15T04:41:53.507Z,105
2017-06-15T04:42:34.044Z,110
2017-06-15T04:43:14.573Z,110
2017-06-15T04:43:55.093Z,115
2017-06-15T04:44:35.606Z,115
2017-06-15T04:45:16.185Z,115
2017-06-15T04:45:56.787Z,115
2017-06-15T04:46:37.325Z,120
2017-06-15T04:47:17.856Z,120
2017-06-15T04:47:58.375Z,120
2017-06-15T04:48:38.907Z,120
2017-06-15T04:49:19.434Z,120
2017-06-15T04:49:59.957Z,125
2017-06-15T04:50:40.461Z,125
2017-06-15T04:51:20.980Z,125
2017-06-15T04:52:01.487Z,125
2017-06-15T04:52:42.019Z,125
2017-06-15T04:53:22.567Z,125
2017-06-15T04:54:03.094Z,125
2017-06-15T04:54:43.633Z,125
2017-06-15T04:55:24.172Z,125
2017-06-15T04:56:04.694Z,125
2017-06-15T04:56:45.208Z,125
2017-06-15T04:57:25.756Z,125
2017-06-15T04:58:06.281Z,125
2017-06-15T04:58:46.805Z,125
2017-06-15T04:59:27.328Z,125
2017-06-15T05:00:07.856Z,125
2017-06-15T05:00:48.386Z,125
2017-06-15T05:01:28.928Z,125
2017-06-15T05:02:09.538Z,125
2017-06-15T05:02:50.071Z,125
2017-06-15T05:03:30.548Z,125
2017-06-15T05:04:11.076Z,125
2017-06-15T05:04:51.603Z,125
2017-06-15T05:05:32.143Z,125
2017-06-15T05:06:12.662Z,125
2017-06-15T05:06:53.216Z,130
2017-06-15T05:07:33.736Z,130
2017-06-15T05:08:14.251Z,130
2017-06-15T05:08:54.785Z,130
2017-06-15T05:09:35.316Z,130
2017-06-15T05:10:15.835Z,130
2017-06-15T05:10:56.388Z,130
2017-06-15T05:11:36.899Z,130
2017-06-15T05:12:17.429Z,130
2017-06-15T05:12:57.941Z,130
2017-06-15T05:13:38.470Z,135
2017-06-15T05:14:19.039Z,135
2017-06-15T05:14:59.508Z,135
2017-06-15T05:15:40.021Z,135
2017-06-15T05:16:20.547Z,140
2017-06-15T05:17:01.079Z,140
2017-06-15T05:17:41.592Z,140
2017-06-15T05:18:22.123Z,145
2017-06-15T05:19:02.667Z,145
2017-06-15T05:19:43.167Z,145
2017-06-15T05:20:23.681Z,145
2017-06-15T05:21:04.187Z,145
2017-06-15T05:21:44.706Z,150
2017-06-15T05:22:25.220Z,150
2017-06-15T05:23:05.740Z,150
2017-06-15T05:23:46.268Z,150
2017-06-15T05:24:26.806Z,155
2017-06-15T05:25:07.328Z,155
2017-06-15T05:25:47.857Z,155
2017-06-15T05:26:28.380Z,155
2017-06-15T05:27:08.923Z,160
2017-06-15T05:27:49.473Z,160
2017-06-15T05:28:38.337Z,160
2017-06-15T05:29:23.534Z,165
2017-06-15T05:30:15.484Z,165
2017-06-15T05:30:56.521Z,165
2017-06-15T05:31:37.060Z,170
2017-06-15T05:32:17.575Z,170
2017-06-15T05:32:58.119Z,170
2017-06-15T05:33:38.641Z,175
2017-06-15T05:34:19.159Z,175
2017-06-15T05:34:59.677Z,180
2017-06-15T05:35:40.202Z,185
2017-06-15T05:36:20.720Z,185
2017-06-15T05:37:01.280Z,185
2017-06-15T05:37:41.768Z,190
2017-06-15T05:38:22.293Z,185
2017-06-15T05:39:02.807Z,185
2017-06-15T05:39:43.483Z,190
2017-06-15T05:40:24.058Z,190
2017-06-15T05:41:04.598Z,190
2017-06-15T05:41:45.168Z,195
2017-06-15T05:42:25.674Z,195
2017-06-15T05:43:06.203Z,185
2017-06-15T05:43:46.735Z,190
2017-06-15T05:44:27.289Z,190
2017-06-15T05:45:07.824Z,190
2017-06-15T05:45:48.362Z,190
2017-06-15T05:46:28.896Z,190
2017-06-15T05:47:09.432Z,190
2017-06-15T05:47:49.964Z,190
2017-06-15T05:48:30.502Z,190
2017-06-15T05:49:11.074Z,195
2017-06-15T05:49:51.612Z,185
2017-06-15T05:50:32.154Z,185
2017-06-15T05:51:12.687Z,185
2017-06-15T05:51:53.226Z,185
2017-06-15T05:52:33.761Z,185
2017-06-15T05:53:14.313Z,185
2017-06-15T05:53:54.862Z,185
2017-06-15T05:54:35.411Z,180
2017-06-15T05:55:15.945Z,180
2017-06-15T05:55:56.486Z,175
2017-06-15T05:56:37.024Z,180
2017-06-15T05:57:17.565Z,180
2017-06-15T05:57:58.103Z,180
2017-06-15T05:58:38.636Z,175
2017-06-15T05:59:19.172Z,175
2017-06-15T05:59:59.712Z,170
2017-06-15T06:00:40.318Z,170
2017-06-15T06:01:21.036Z,170
2017-06-15T06:02:01.546Z,170
2017-06-15T06:02:42.116Z,170
2017-06-15T06:03:22.658Z,170
2017-06-15T06:04:03.200Z,170
2017-06-15T06:04:43.730Z,170
2017-06-15T06:05:24.269Z,170
2017-06-15T06:06:04.807Z,170
2017-06-15T06:06:45.540Z,170
2017-06-15T06:07:26.081Z,170
2017-06-15T06:08:06.619Z,165
2017-06-15T06:08:47.159Z,165
2017-06-15T06:09:27.695Z,160
2017-06-15T06:10:08.230Z,160
2017-06-15T06:10:48.768Z,160
2017-06-15T06:11:29.308Z,160
2017-06-15T06:12:09.845Z,155
2017-06-15T06:12:50.373Z,155
2017-06-15T06:13:30.966Z,155
2017-06-15T06:14:11.506Z,150
2017-06-15T06:14:52.046Z,155
2017-06-15T06:15:32.579Z,150
2017-06-15T06:16:13.110Z,150
2017-06-15T06:16:53.649Z,150
2017-06-15T06:17:34.184Z,145
2017-06-15T06:18:14.721Z,145
2017-06-15T06:18:55.252Z,145
2017-06-15T06:19:35.797Z,140
2017-06-15T06:20:16.335Z,140
2017-06-15T06:20:56.875Z,140
2017-06-15T06:21:37.427Z,140
2017-06-15T06:22:17.952Z,140
2017-06-15T06:22:58.488Z,140
2017-06-15T06:23:39.030Z,140
2017-06-15T06:24:19.569Z,140
2017-06-15T06:25:00.104Z,145
2017-06-15T06:25:40.645Z,145
2017-06-15T06:26:21.185Z,145
2017-06-15T06:27:01.733Z,145
2017-06-15T06:27:42.296Z,145
2017-06-15T06:28:22.803Z,145
2017-06-15T06:29:03.339Z,145
2017-06-15T06:29:43.883Z,150
2017-06-15T06:30:24.427Z,155
2017-06-15T06:31:04.978Z,155
2017-06-15T06:31:45.522Z,155
2017-06-15T06:32:26.068Z,160
2017-06-15T06:33:06.609Z,160
2017-06-15T06:33:47.158Z,160
2017-06-15T06:34:27.695Z,165
2017-06-15T06:35:08.233Z,165
2017-06-15T06:35:48.779Z,170
2017-06-15T06:36:29.305Z,170
2017-06-15T06:37:09.848Z,170
2017-06-15T06:37:50.381Z,170
2017-06-15T06:38:30.918Z,170
2017-06-15T06:39:11.459Z,175
2017-06-15T06:39:52.005Z,180
2017-06-15T06:40:32.535Z,180
2017-06-15T06:41:13.081Z,180
2017-06-15T06:41:53.621Z,190
2017-06-15T06:42:34.163Z,185
2017-06-15T06:43:14.703Z,185
2017-06-15T06:43:55.246Z,185
2017-06-15T06:44:35.795Z,185
2017-06-15T06:45:16.327Z,185
2017-06-15T06:45:56.863Z,185
2017-06-15T06:46:37.408Z,185
2017-06-15T06:47:17.950Z,185
2017-06-15T06:47:58.488Z,185
2017-06-15T06:48:39.044Z,190
2017-06-15T06:49:19.564Z,190
2017-06-15T06:50:00.105Z,185
2017-06-15T06:50:40.646Z,180
2017-06-15T06:51:21.180Z,180
2017-06-15T06:52:01.724Z,180
2017-06-15T06:52:42.265Z,180
2017-06-15T06:53:22.802Z,180
2017-06-15T06:54:03.350Z,180
2017-06-15T06:54:43.895Z,185
2017-06-15T06:55:24.434Z,185
2017-06-15T06:56:04.971Z,190
2017-06-15T06:56:45.516Z,185
2017-06-15T06:57:26.058Z,185
2017-06-15T06:58:06.604Z,190
2017-06-15T06:58:47.151Z,190
2017-06-15T06:59:27.692Z,190
2017-06-15T07:00:08.232Z,195
2017-06-15T07:00:48.772Z,195
2017-06-15T07:01:29.308Z,195
2017-06-15T07:02:09.865Z,195
2017-06-15T07:02:50.407Z,195
2017-06-15T07:03:30.975Z,195
2017-06-15T07:04:11.524Z,195
2017-06-15T07:04:52.063Z,195
2017-06-15T07:05:32.621Z,195
2017-06-15T07:06:13.171Z,195
2017-06-15T07:06:53.840Z,195
2017-06-15T07:07:35.182Z,195
2017-06-15T07:08:14.962Z,195
2017-06-15T07:08:55.505Z,195
2017-06-15T07:09:36.042Z,195
2017-06-15T07:10:16.720Z,195
2017-06-15T07:10:57.286Z,195
2017-06-15T07:11:37.829Z,195
2017-06-15T07:12:18.369Z,195
2017-06-15T07:12:58.893Z,200
2017-06-15T07:13:39.436Z,200
2017-06-15T07:14:19.959Z,200
2017-06-15T07:15:00.508Z,200
2017-06-15T07:15:41.040Z,200
2017-06-15T07:16:21.580Z,200
2017-06-15T07:17:02.119Z,205
2017-06-15T07:17:42.669Z,205
2017-06-15T07:18:23.215Z,205
2017-06-15T07:19:03.780Z,205
2017-06-15T07:19:45.183Z,205
2017-06-15T07:20:24.878Z,205
2017-06-15T07:21:05.432Z,200
2017-06-15T07:21:45.963Z,205
2017-06-15T07:22:26.495Z,200
2017-06-15T07:23:07.036Z,205
2017-06-15T07:23:47.575Z,205
2017-06-15T07:24:28.143Z,200
2017-06-15T07:25:08.629Z,200
2017-06-15T07:25:49.157Z,200
2017-06-15T07:26:29.690Z,200
2017-06-15T07:27:10.218Z,200
2017-06-15T07:27:50.813Z,200
2017-06-15T07:28:31.341Z,205
2017-06-15T07:29:11.881Z,210
2017-06-15T07:29:52.412Z,210
2017-06-15T07:30:33.008Z,215
2017-06-15T07:31:13.525Z,215
2017-06-15T07:31:54.102Z,220
2017-06-15T07:32:34.634Z,220
2017-06-15T07:33:15.155Z,225
2017-06-15T07:33:55.699Z,230
2017-06-15T07:34:36.234Z,230
2017-06-15T07:35:16.787Z,230
2017-06-15T07:35:57.339Z,230
2017-06-15T07:36:37.875Z,235
2017-06-15T07:37:18.412Z,235
2017-06-15T07:37:58.923Z,235
2017-06-15T07:38:39.461Z,240
2017-06-15T07:39:20.013Z,240
2017-06-15T07:40:00.568Z,240
2017-06-15T07:40:41.125Z,240
2017-06-15T07:41:21.665Z,240
2017-06-15T07:42:02.220Z,235
2017-06-15T07:42:42.752Z,235
2017-06-15T07:43:23.310Z,235
2017-06-15T07:44:03.838Z,235
2017-06-15T07:44:45.091Z,235
2017-06-15T07:45:25.619Z,235
2017-06-15T07:46:06.167Z,240
2017-06-15T07:46:46.711Z,245
2017-06-15T07:47:27.263Z,245
2017-06-15T07:48:07.796Z,250
2017-06-15T07:48:48.422Z,250
2017-06-15T07:49:28.977Z,255
2017-06-15T07:50:09.495Z,260
2017-06-15T07:50:50.030Z,265
2017-06-15T07:51:30.549Z,270
2017-06-15T07:52:11.110Z,275
2017-06-15T07:52:51.686Z,275
2017-06-15T07:53:32.192Z,280
2017-06-15T07:54:12.739Z,280
2017-06-15T07:54:53.286Z,285
2017-06-15T07:55:33.829Z,290
2017-06-15T07:56:14.350Z,290
2017-06-15T07:56:54.891Z,290
2017-06-15T07:57:35.435Z,295
2017-06-15T07:58:16.005Z,295
2017-06-15T07:58:56.679Z,300
2017-06-15T07:59:37.200Z,300
2017-06-15T08:00:17.762Z,305
2017-06-15T08:00:58.319Z,310
2017-06-15T08:01:38.851Z,310
2017-06-15T08:02:19.383Z,315
2017-06-15T08:02:59.929Z,310
2017-06-15T08:03:40.486Z,315
2017-06-15T08:04:21.038Z,315
2017-06-15T08:05:01.587Z,320
2017-06-15T08:05:42.135Z,320
2017-06-15T08:06:22.671Z,325
2017-06-15T08:07:03.210Z,325
2017-06-15T08:07:43.748Z,325
2017-06-15T08:09:56.997Z,320
2017-06-15T08:10:37.516Z,320
2017-06-15T08:11:18.048Z,315
2017-06-15T08:11:58.573Z,315
2017-06-15T08:12:39.110Z,310
2017-06-15T08:13:19.650Z,305
2017-06-15T08:14:00.197Z,295
2017-06-15T08:14:40.720Z,290
2017-06-15T08:15:21.240Z,285
2017-06-15T08:16:01.759Z,280
2017-06-15T08:16:42.310Z,275
2017-06-15T08:17:22.837Z,270
2017-06-15T08:18:03.347Z,265
2017-06-15T08:18:43.891Z,265
2017-06-15T08:19:24.437Z,265
2017-06-15T08:20:04.968Z,260
2017-06-15T08:20:45.495Z,255
2017-06-15T08:21:26.024Z,255
2017-06-15T08:22:06.544Z,250
2017-06-15T08:22:47.090Z,250
2017-06-15T08:23:27.625Z,245
2017-06-15T08:24:08.161Z,245
2017-06-15T08:24:48.692Z,240
2017-06-15T08:25:29.242Z,240
2017-06-15T08:26:09.788Z,235
2017-06-15T08:26:50.309Z,235
2017-06-15T08:27:30.855Z,230
2017-06-15T08:28:11.399Z,235
2017-06-15T08:28:51.916Z,230
2017-06-15T08:29:32.445Z,230
2017-06-15T08:30:13.009Z,230
2017-06-15T08:30:53.567Z,230
2017-06-15T08:31:34.095Z,230
2017-06-15T08:32:14.594Z,235
2017-06-15T08:32:55.144Z,230
2017-06-15T08:33:35.707Z,230
2017-06-15T08:34:16.263Z,235
2017-06-15T08:34:56.784Z,240
2017-06-15T08:35:37.316Z,255
2017-06-15T08:36:17.843Z,250
2017-06-15T08:36:58.362Z,255
2017-06-15T08:37:38.912Z,260
2017-06-15T08:38:19.483Z,265
2017-06-15T08:39:00.036Z,265
2017-06-15T08:39:40.562Z,270
2017-06-15T08:40:21.114Z,270
2017-06-15T08:41:01.633Z,275
2017-06-15T08:41:42.194Z,275
2017-06-15T08:42:22.689Z,280
2017-06-15T08:43:03.220Z,285
2017-06-15T08:43:43.739Z,280
2017-06-15T08:44:24.273Z,280
2017-06-15T08:45:04.814Z,280
2017-06-15T08:45:45.370Z,280
2017-06-15T08:46:25.910Z,280
2017-06-15T08:47:06.433Z,280
2017-06-15T08:47:46.961Z,280
2017-06-15T08:48:27.517Z,280
2017-06-15T08:49:08.035Z,280
2017-06-15T08:49:48.557Z,275
2017-06-15T08:50:29.071Z,275
2017-06-15T08:51:09.613Z,270
2017-06-15T08:51:50.143Z,270
2017-06-15T08:52:30.678Z,265
2017-06-15T08:53:11.215Z,260
2017-06-15T08:53:51.751Z,260
2017-06-15T08:54:32.300Z,260
2017-06-15T08:55:12.836Z,260
2017-06-15T08:55:53.368Z,255
2017-06-15T08:56:33.912Z,255
2017-06-15T08:57:14.470Z,250
2017-06-15T08:57:55.024Z,250
2017-06-15T08:58:35.576Z,250
2017-06-15T08:59:16.366Z,245
2017-06-15T08:59:56.874Z,245
2017-06-15T09:00:37.452Z,245
2017-06-15T09:01:17.988Z,250
2017-06-15T09:01:59.259Z,250
2017-06-15T09:02:39.806Z,255
2017-06-15T09:03:20.318Z,260
2017-06-15T09:04:00.847Z,260
2017-06-15T09:04:41.390Z,260
2017-06-15T09:05:22.001Z,260
2017-06-15T09:06:02.468Z,260
2017-06-15T09:06:43.010Z,260
2017-06-15T09:07:23.532Z,260
2017-06-15T09:08:04.075Z,260
2017-06-15T09:08:44.611Z,260
2017-06-15T09:09:25.135Z,265
2017-06-15T09:10:05.685Z,260
2017-06-15T09:10:46.211Z,265
2017-06-15T09:11:26.718Z,265
2017-06-15T09:12:07.286Z,265
2017-06-15T09:12:47.839Z,265
2017-06-15T09:13:28.357Z,270
2017-06-15T09:14:08.880Z,265
2017-06-15T09:14:49.477Z,265
2017-06-15T09:15:30.023Z,265
2017-06-15T09:16:10.550Z,265
2017-06-15T09:16:51.101Z,260
2017-06-15T09:17:31.638Z,260
2017-06-15T09:18:12.171Z,255
2017-06-15T09:18:52.696Z,255
2017-06-15T09:19:33.256Z,250
2017-06-15T09:20:13.789Z,245
2017-06-15T09:20:54.345Z,245
2017-06-15T09:21:34.882Z,240
2017-06-15T09:22:15.442Z,240
2017-06-15T09:22:55.961Z,240
2017-06-15T09:23:36.494Z,240
2017-06-15T09:24:17.021Z,240
2017-06-15T09:24:57.555Z,240
2017-06-15T09:25:38.089Z,240
2017-06-15T09:26:18.621Z,240
2017-06-15T09:26:59.138Z,245
2017-06-15T09:27:39.657Z,245
2017-06-15T09:28:20.200Z,245
2017-06-15T09:29:00.717Z,250
2017-06-15T09:29:41.265Z,250
2017-06-15T09:30:21.810Z,250
2017-06-15T09:31:02.329Z,250
2017-06-15T09:31:42.858Z,250
2017-06-15T09:32:23.408Z,250
2017-06-15T09:33:03.965Z,250
2017-06-15T09:33:44.489Z,245
2017-06-15T09:34:25.025Z,245
2017-06-15T09:35:05.562Z,245
2017-06-15T09:35:46.106Z,245
2017-06-15T09:36:26.614Z,240
2017-06-15T09:37:07.184Z,240
2017-06-15T09:37:47.677Z,240
2017-06-15T09:38:28.215Z,235
2017-06-15T09:39:08.743Z,240
2017-06-15T09:39:49.289Z,240
2017-06-15T09:40:29.812Z,240
2017-06-15T09:41:10.362Z,245
2017-06-15T09:41:50.878Z,235
2017-06-15T09:42:31.418Z,230
2017-06-15T09:43:11.955Z,225
2017-06-15T09:43:52.503Z,225
2017-06-15T09:44:33.046Z,225
2017-06-15T09:45:13.563Z,225